sensor_id;sensor_type;location;lat;lon;timestamp;P1;durP1;ratioP1;P2;durP2;ratioP2
19739;SDS011;10027;51.066;13.768;2023-04-12T00:01:52;5.80;;;3.90;;
19739;SDS011;10027;51.066;13.768;2023-04-12T00:04:19;8.90;;;4.27;;
19739;SDS011;10027;51.066;13.768;2023-04-12T00:06:48;19.67;;;8.87;;
19739;SDS011;10027;51.066;13.768;2023-04-12T00:09:15;9.87;;;5.20;;
19739;SDS011;10027;51.066;13.768;2023-04-12T00:11:42;9.67;;;4.63;;
19739;SDS011;10027;51.066;13.768;2023-04-12T00:14:09;10.77;;;4.50;;
19739;SDS011;10027;51.066;13.768;2023-04-12T00:16:36;8.07;;;4.57;;
19739;SDS011;10027;51.066;13.768;2023-04-12T00:19:04;16.00;;;6.43;;
19739;SDS011;10027;51.066;13.768;2023-04-12T00:21:32;10.83;;;5.90;;
19739;SDS011;10027;51.066;13.768;2023-04-12T00:23:59;13.67;;;5.60;;
19739;SDS011;10027;51.066;13.768;2023-04-12T00:26:26;10.20;;;5.40;;
19739;SDS011;10027;51.066;13.768;2023-04-12T00:28:53;10.63;;;5.30;;
19739;SDS011;10027;51.066;13.768;2023-04-12T00:31:21;9.93;;;4.87;;
19739;SDS011;10027;51.066;13.768;2023-04-12T00:33:48;9.27;;;4.97;;
19739;SDS011;10027;51.066;13.768;2023-04-12T00:36:16;8.87;;;4.77;;
19739;SDS011;10027;51.066;13.768;2023-04-12T00:38:43;10.47;;;4.80;;
19739;SDS011;10027;51.066;13.768;2023-04-12T00:41:13;5.67;;;3.60;;
19739;SDS011;10027;51.066;13.768;2023-04-12T00:43:40;9.63;;;3.90;;
19739;SDS011;10027;51.066;13.768;2023-04-12T00:46:08;4.70;;;3.00;;
19739;SDS011;10027;51.066;13.768;2023-04-12T00:48:37;4.33;;;2.83;;
19739;SDS011;10027;51.066;13.768;2023-04-12T00:51:05;5.37;;;2.70;;
19739;SDS011;10027;51.066;13.768;2023-04-12T00:53:33;7.30;;;2.87;;
19739;SDS011;10027;51.066;13.768;2023-04-12T00:56:00;4.30;;;2.70;;
19739;SDS011;10027;51.066;13.768;2023-04-12T00:58:28;7.33;;;2.70;;
19739;SDS011;10027;51.066;13.768;2023-04-12T01:00:56;4.57;;;2.70;;
19739;SDS011;10027;51.066;13.768;2023-04-12T01:03:24;4.67;;;2.67;;
19739;SDS011;10027;51.066;13.768;2023-04-12T01:06:10;5.27;;;2.50;;
19739;SDS011;10027;51.066;13.768;2023-04-12T01:13:43;5.73;;;2.57;;
19739;SDS011;10027;51.066;13.768;2023-04-12T01:16:17;2.73;;;2.00;;
19739;SDS011;10027;51.066;13.768;2023-04-12T01:18:47;2.93;;;2.30;;
19739;SDS011;10027;51.066;13.768;2023-04-12T01:21:23;3.37;;;1.90;;
19739;SDS011;10027;51.066;13.768;2023-04-12T01:28:52;2.40;;;1.90;;
19739;SDS011;10027;51.066;13.768;2023-04-12T01:31:20;2.80;;;1.83;;
19739;SDS011;10027;51.066;13.768;2023-04-12T01:33:47;3.00;;;1.80;;
19739;SDS011;10027;51.066;13.768;2023-04-12T01:36:16;3.27;;;1.53;;
19739;SDS011;10027;51.066;13.768;2023-04-12T01:38:44;2.23;;;1.70;;
19739;SDS011;10027;51.066;13.768;2023-04-12T01:41:11;2.93;;;2.00;;
19739;SDS011;10027;51.066;13.768;2023-04-12T01:43:42;4.30;;;2.00;;
19739;SDS011;10027;51.066;13.768;2023-04-12T01:46:09;2.90;;;1.60;;
19739;SDS011;10027;51.066;13.768;2023-04-12T01:48:37;3.33;;;1.93;;
19739;SDS011;10027;51.066;13.768;2023-04-12T01:51:05;3.27;;;1.60;;
19739;SDS011;10027;51.066;13.768;2023-04-12T01:53:53;2.23;;;1.67;;
19739;SDS011;10027;51.066;13.768;2023-04-12T01:56:23;3.83;;;1.63;;
19739;SDS011;10027;51.066;13.768;2023-04-12T01:58:52;2.80;;;1.57;;
19739;SDS011;10027;51.066;13.768;2023-04-12T02:01:21;2.40;;;1.57;;
19739;SDS011;10027;51.066;13.768;2023-04-12T02:03:49;2.23;;;1.80;;
19739;SDS011;10027;51.066;13.768;2023-04-12T02:06:18;3.83;;;1.53;;
19739;SDS011;10027;51.066;13.768;2023-04-12T02:08:48;2.47;;;1.57;;
19739;SDS011;10027;51.066;13.768;2023-04-12T02:11:15;3.43;;;1.73;;
19739;SDS011;10027;51.066;13.768;2023-04-12T02:13:42;2.77;;;1.60;;
19739;SDS011;10027;51.066;13.768;2023-04-12T02:16:10;2.03;;;1.53;;
19739;SDS011;10027;51.066;13.768;2023-04-12T02:18:39;2.20;;;1.60;;
19739;SDS011;10027;51.066;13.768;2023-04-12T02:21:07;4.47;;;1.63;;
19739;SDS011;10027;51.066;13.768;2023-04-12T02:23:34;2.70;;;1.50;;
19739;SDS011;10027;51.066;13.768;2023-04-12T02:26:01;4.40;;;1.70;;
19739;SDS011;10027;51.066;13.768;2023-04-12T02:28:28;2.37;;;1.50;;
19739;SDS011;10027;51.066;13.768;2023-04-12T02:30:56;2.47;;;1.70;;
19739;SDS011;10027;51.066;13.768;2023-04-12T02:33:24;2.10;;;1.37;;
19739;SDS011;10027;51.066;13.768;2023-04-12T02:35:53;3.27;;;2.07;;
19739;SDS011;10027;51.066;13.768;2023-04-12T02:38:22;3.30;;;1.70;;
19739;SDS011;10027;51.066;13.768;2023-04-12T02:40:49;3.73;;;1.80;;
19739;SDS011;10027;51.066;13.768;2023-04-12T02:43:16;3.20;;;1.60;;
19739;SDS011;10027;51.066;13.768;2023-04-12T02:45:43;2.67;;;1.57;;
19739;SDS011;10027;51.066;13.768;2023-04-12T02:48:11;3.50;;;1.70;;
19739;SDS011;10027;51.066;13.768;2023-04-12T02:50:38;1.50;;;1.33;;
19739;SDS011;10027;51.066;13.768;2023-04-12T02:53:05;3.17;;;1.30;;
19739;SDS011;10027;51.066;13.768;2023-04-12T02:55:32;3.23;;;1.63;;
19739;SDS011;10027;51.066;13.768;2023-04-12T02:58:01;6.47;;;1.57;;
19739;SDS011;10027;51.066;13.768;2023-04-12T03:00:28;5.83;;;1.63;;
19739;SDS011;10027;51.066;13.768;2023-04-12T03:02:56;2.00;;;1.53;;
19739;SDS011;10027;51.066;13.768;2023-04-12T03:05:24;3.53;;;1.87;;
19739;SDS011;10027;51.066;13.768;2023-04-12T03:07:52;2.30;;;1.43;;
19739;SDS011;10027;51.066;13.768;2023-04-12T03:10:19;2.50;;;1.80;;
19739;SDS011;10027;51.066;13.768;2023-04-12T03:12:47;3.03;;;1.43;;
19739;SDS011;10027;51.066;13.768;2023-04-12T03:15:14;3.10;;;1.70;;
19739;SDS011;10027;51.066;13.768;2023-04-12T03:17:42;1.90;;;1.43;;
19739;SDS011;10027;51.066;13.768;2023-04-12T03:20:10;3.60;;;1.93;;
19739;SDS011;10027;51.066;13.768;2023-04-12T03:22:38;3.47;;;1.30;;
19739;SDS011;10027;51.066;13.768;2023-04-12T03:25:05;2.03;;;1.40;;
19739;SDS011;10027;51.066;13.768;2023-04-12T03:27:34;2.13;;;1.47;;
19739;SDS011;10027;51.066;13.768;2023-04-12T03:30:02;2.37;;;1.20;;
19739;SDS011;10027;51.066;13.768;2023-04-12T03:32:29;3.03;;;1.93;;
19739;SDS011;10027;51.066;13.768;2023-04-12T03:34:56;7.20;;;1.80;;
19739;SDS011;10027;51.066;13.768;2023-04-12T03:37:24;1.83;;;1.47;;
19739;SDS011;10027;51.066;13.768;2023-04-12T03:39:51;6.17;;;2.00;;
19739;SDS011;10027;51.066;13.768;2023-04-12T03:42:18;4.40;;;1.90;;
19739;SDS011;10027;51.066;13.768;2023-04-12T03:44:57;3.33;;;2.00;;
19739;SDS011;10027;51.066;13.768;2023-04-12T03:47:25;2.47;;;1.80;;
19739;SDS011;10027;51.066;13.768;2023-04-12T03:49:55;3.63;;;1.77;;
19739;SDS011;10027;51.066;13.768;2023-04-12T03:52:37;4.10;;;1.97;;
19739;SDS011;10027;51.066;13.768;2023-04-12T03:55:04;3.13;;;2.00;;
19739;SDS011;10027;51.066;13.768;2023-04-12T03:57:33;3.10;;;1.70;;
19739;SDS011;10027;51.066;13.768;2023-04-12T04:00:00;4.13;;;1.60;;
19739;SDS011;10027;51.066;13.768;2023-04-12T04:02:28;3.03;;;2.00;;
19739;SDS011;10027;51.066;13.768;2023-04-12T04:04:57;3.40;;;1.87;;
19739;SDS011;10027;51.066;13.768;2023-04-12T04:07:24;4.73;;;1.90;;
19739;SDS011;10027;51.066;13.768;2023-04-12T04:09:55;2.77;;;1.90;;
19739;SDS011;10027;51.066;13.768;2023-04-12T04:12:22;2.87;;;1.60;;
19739;SDS011;10027;51.066;13.768;2023-04-12T04:14:49;4.40;;;2.00;;
19739;SDS011;10027;51.066;13.768;2023-04-12T04:17:16;2.80;;;1.77;;
19739;SDS011;10027;51.066;13.768;2023-04-12T04:19:44;3.03;;;1.93;;
19739;SDS011;10027;51.066;13.768;2023-04-12T04:22:11;2.00;;;1.60;;
19739;SDS011;10027;51.066;13.768;2023-04-12T04:24:39;3.47;;;1.87;;
19739;SDS011;10027;51.066;13.768;2023-04-12T04:27:06;4.03;;;1.70;;
19739;SDS011;10027;51.066;13.768;2023-04-12T04:29:33;2.83;;;1.70;;
19739;SDS011;10027;51.066;13.768;2023-04-12T04:32:01;5.10;;;2.00;;
19739;SDS011;10027;51.066;13.768;2023-04-12T04:34:29;4.03;;;2.20;;
19739;SDS011;10027;51.066;13.768;2023-04-12T04:36:56;3.80;;;1.73;;
19739;SDS011;10027;51.066;13.768;2023-04-12T04:39:24;3.07;;;1.80;;
19739;SDS011;10027;51.066;13.768;2023-04-12T04:41:52;4.97;;;2.00;;
19739;SDS011;10027;51.066;13.768;2023-04-12T04:44:20;3.73;;;2.10;;
19739;SDS011;10027;51.066;13.768;2023-04-12T04:46:47;10.73;;;2.20;;
19739;SDS011;10027;51.066;13.768;2023-04-12T04:49:14;3.47;;;2.10;;
19739;SDS011;10027;51.066;13.768;2023-04-12T04:51:42;3.10;;;2.10;;
19739;SDS011;10027;51.066;13.768;2023-04-12T04:54:09;3.90;;;2.17;;
19739;SDS011;10027;51.066;13.768;2023-04-12T04:56:36;3.00;;;2.00;;
19739;SDS011;10027;51.066;13.768;2023-04-12T04:59:03;2.70;;;1.90;;
19739;SDS011;10027;51.066;13.768;2023-04-12T05:01:31;3.87;;;2.13;;
19739;SDS011;10027;51.066;13.768;2023-04-12T05:04:01;4.90;;;2.17;;
19739;SDS011;10027;51.066;13.768;2023-04-12T05:06:29;3.77;;;2.20;;
19739;SDS011;10027;51.066;13.768;2023-04-12T05:08:56;4.00;;;2.10;;
19739;SDS011;10027;51.066;13.768;2023-04-12T05:11:24;4.10;;;2.00;;
19739;SDS011;10027;51.066;13.768;2023-04-12T05:13:51;3.13;;;2.07;;
19739;SDS011;10027;51.066;13.768;2023-04-12T05:16:19;3.20;;;2.10;;
19739;SDS011;10027;51.066;13.768;2023-04-12T05:18:46;4.77;;;2.50;;
19739;SDS011;10027;51.066;13.768;2023-04-12T05:21:13;3.47;;;2.10;;
19739;SDS011;10027;51.066;13.768;2023-04-12T05:23:41;4.43;;;2.27;;
19739;SDS011;10027;51.066;13.768;2023-04-12T05:26:08;5.30;;;2.73;;
19739;SDS011;10027;51.066;13.768;2023-04-12T05:28:36;4.13;;;2.53;;
19739;SDS011;10027;51.066;13.768;2023-04-12T05:31:03;3.50;;;2.27;;
19739;SDS011;10027;51.066;13.768;2023-04-12T05:33:31;7.43;;;2.63;;
19739;SDS011;10027;51.066;13.768;2023-04-12T05:36:01;3.87;;;2.67;;
19739;SDS011;10027;51.066;13.768;2023-04-12T05:38:29;5.13;;;2.70;;
19739;SDS011;10027;51.066;13.768;2023-04-12T05:40:56;3.13;;;2.33;;
19739;SDS011;10027;51.066;13.768;2023-04-12T05:43:24;4.50;;;2.50;;
19739;SDS011;10027;51.066;13.768;2023-04-12T05:45:51;6.03;;;2.80;;
19739;SDS011;10027;51.066;13.768;2023-04-12T05:48:18;4.43;;;2.83;;
19739;SDS011;10027;51.066;13.768;2023-04-12T05:50:49;4.50;;;2.87;;
19739;SDS011;10027;51.066;13.768;2023-04-12T05:53:17;5.53;;;2.73;;
19739;SDS011;10027;51.066;13.768;2023-04-12T05:55:44;5.70;;;3.20;;
19739;SDS011;10027;51.066;13.768;2023-04-12T05:58:11;7.73;;;3.00;;
19739;SDS011;10027;51.066;13.768;2023-04-12T06:00:38;4.93;;;2.80;;
19739;SDS011;10027;51.066;13.768;2023-04-12T06:03:10;6.87;;;3.10;;
19739;SDS011;10027;51.066;13.768;2023-04-12T06:05:37;5.70;;;2.77;;
19739;SDS011;10027;51.066;13.768;2023-04-12T06:08:05;4.27;;;2.90;;
19739;SDS011;10027;51.066;13.768;2023-04-12T06:10:33;5.03;;;2.90;;
19739;SDS011;10027;51.066;13.768;2023-04-12T06:13:01;6.20;;;2.80;;
19739;SDS011;10027;51.066;13.768;2023-04-12T06:15:28;4.23;;;3.20;;
19739;SDS011;10027;51.066;13.768;2023-04-12T06:17:57;5.07;;;3.10;;
19739;SDS011;10027;51.066;13.768;2023-04-12T06:20:25;5.20;;;2.90;;
19739;SDS011;10027;51.066;13.768;2023-04-12T06:22:52;5.07;;;3.27;;
19739;SDS011;10027;51.066;13.768;2023-04-12T06:25:20;3.37;;;2.87;;
19739;SDS011;10027;51.066;13.768;2023-04-12T06:27:48;5.20;;;3.27;;
19739;SDS011;10027;51.066;13.768;2023-04-12T06:30:15;7.20;;;3.33;;
19739;SDS011;10027;51.066;13.768;2023-04-12T06:32:42;5.80;;;3.20;;
19739;SDS011;10027;51.066;13.768;2023-04-12T06:35:10;9.60;;;3.07;;
19739;SDS011;10027;51.066;13.768;2023-04-12T06:37:37;6.87;;;3.03;;
19739;SDS011;10027;51.066;13.768;2023-04-12T06:40:04;5.23;;;3.07;;
19739;SDS011;10027;51.066;13.768;2023-04-12T06:42:32;15.10;;;3.87;;
19739;SDS011;10027;51.066;13.768;2023-04-12T06:44:59;6.13;;;3.13;;
19739;SDS011;10027;51.066;13.768;2023-04-12T06:47:26;8.07;;;3.50;;
19739;SDS011;10027;51.066;13.768;2023-04-12T06:49:53;6.33;;;3.23;;
19739;SDS011;10027;51.066;13.768;2023-04-12T06:52:23;4.33;;;2.97;;
19739;SDS011;10027;51.066;13.768;2023-04-12T06:54:52;5.07;;;3.30;;
19739;SDS011;10027;51.066;13.768;2023-04-12T06:57:19;6.30;;;3.67;;
19739;SDS011;10027;51.066;13.768;2023-04-12T06:59:46;5.40;;;3.03;;
19739;SDS011;10027;51.066;13.768;2023-04-12T07:02:14;5.43;;;3.23;;
19739;SDS011;10027;51.066;13.768;2023-04-12T07:04:41;4.37;;;2.80;;
19739;SDS011;10027;51.066;13.768;2023-04-12T07:07:09;5.60;;;2.80;;
19739;SDS011;10027;51.066;13.768;2023-04-12T07:09:36;4.63;;;2.73;;
19739;SDS011;10027;51.066;13.768;2023-04-12T07:12:03;3.10;;;2.50;;
19739;SDS011;10027;51.066;13.768;2023-04-12T07:14:30;3.80;;;2.80;;
19739;SDS011;10027;51.066;13.768;2023-04-12T07:16:57;4.27;;;2.40;;
19739;SDS011;10027;51.066;13.768;2023-04-12T07:19:24;5.20;;;2.20;;
19739;SDS011;10027;51.066;13.768;2023-04-12T07:21:52;3.43;;;2.20;;
19739;SDS011;10027;51.066;13.768;2023-04-12T07:24:19;8.77;;;2.33;;
19739;SDS011;10027;51.066;13.768;2023-04-12T07:26:46;3.60;;;2.00;;
19739;SDS011;10027;51.066;13.768;2023-04-12T07:29:13;5.53;;;2.40;;
19739;SDS011;10027;51.066;13.768;2023-04-12T07:31:42;2.63;;;2.00;;
19739;SDS011;10027;51.066;13.768;2023-04-12T07:34:09;2.97;;;2.03;;
19739;SDS011;10027;51.066;13.768;2023-04-12T07:36:37;3.70;;;1.93;;
19739;SDS011;10027;51.066;13.768;2023-04-12T07:39:04;3.50;;;2.00;;
19739;SDS011;10027;51.066;13.768;2023-04-12T07:41:31;3.57;;;1.97;;
19739;SDS011;10027;51.066;13.768;2023-04-12T07:43:59;4.37;;;2.10;;
19739;SDS011;10027;51.066;13.768;2023-04-12T07:46:26;4.23;;;1.70;;
19739;SDS011;10027;51.066;13.768;2023-04-12T07:48:53;3.27;;;2.03;;
19739;SDS011;10027;51.066;13.768;2023-04-12T07:51:21;2.73;;;1.87;;
19739;SDS011;10027;51.066;13.768;2023-04-12T07:53:48;3.33;;;2.00;;
19739;SDS011;10027;51.066;13.768;2023-04-12T07:56:16;3.60;;;1.93;;
19739;SDS011;10027;51.066;13.768;2023-04-12T07:58:44;2.93;;;1.87;;
19739;SDS011;10027;51.066;13.768;2023-04-12T08:01:11;3.00;;;1.80;;
19739;SDS011;10027;51.066;13.768;2023-04-12T08:03:38;3.30;;;1.90;;
19739;SDS011;10027;51.066;13.768;2023-04-12T08:06:06;7.43;;;2.00;;
19739;SDS011;10027;51.066;13.768;2023-04-12T08:08:33;3.27;;;1.67;;
19739;SDS011;10027;51.066;13.768;2023-04-12T08:11:00;2.97;;;1.70;;
19739;SDS011;10027;51.066;13.768;2023-04-12T08:13:32;3.13;;;1.67;;
19739;SDS011;10027;51.066;13.768;2023-04-12T08:15:59;4.07;;;2.30;;
19739;SDS011;10027;51.066;13.768;2023-04-12T08:18:27;3.13;;;1.77;;
19739;SDS011;10027;51.066;13.768;2023-04-12T08:20:55;2.30;;;1.30;;
19739;SDS011;10027;51.066;13.768;2023-04-12T08:23:22;3.27;;;1.57;;
19739;SDS011;10027;51.066;13.768;2023-04-12T08:25:49;2.70;;;1.50;;
19739;SDS011;10027;51.066;13.768;2023-04-12T08:28:17;2.57;;;1.10;;
19739;SDS011;10027;51.066;13.768;2023-04-12T08:30:44;1.70;;;1.07;;
19739;SDS011;10027;51.066;13.768;2023-04-12T08:33:11;2.37;;;1.00;;
19739;SDS011;10027;51.066;13.768;2023-04-12T08:35:38;1.23;;;0.90;;
19739;SDS011;10027;51.066;13.768;2023-04-12T08:38:05;6.10;;;1.20;;
19739;SDS011;10027;51.066;13.768;2023-04-12T08:40:33;2.43;;;0.77;;
19739;SDS011;10027;51.066;13.768;2023-04-12T08:43:00;2.47;;;1.10;;
19739;SDS011;10027;51.066;13.768;2023-04-12T08:45:28;1.10;;;0.80;;
19739;SDS011;10027;51.066;13.768;2023-04-12T08:47:58;1.87;;;0.80;;
19739;SDS011;10027;51.066;13.768;2023-04-12T08:50:26;2.23;;;0.80;;
19739;SDS011;10027;51.066;13.768;2023-04-12T08:52:53;2.13;;;1.10;;
19739;SDS011;10027;51.066;13.768;2023-04-12T08:55:21;2.53;;;0.80;;
19739;SDS011;10027;51.066;13.768;2023-04-12T08:57:48;1.50;;;0.97;;
19739;SDS011;10027;51.066;13.768;2023-04-12T09:00:17;1.70;;;0.80;;
19739;SDS011;10027;51.066;13.768;2023-04-12T09:02:46;2.30;;;0.80;;
19739;SDS011;10027;51.066;13.768;2023-04-12T09:05:14;3.17;;;1.10;;
19739;SDS011;10027;51.066;13.768;2023-04-12T09:07:41;2.23;;;0.87;;
19739;SDS011;10027;51.066;13.768;2023-04-12T09:10:08;2.10;;;0.97;;
19739;SDS011;10027;51.066;13.768;2023-04-12T09:12:43;2.47;;;0.80;;
19739;SDS011;10027;51.066;13.768;2023-04-12T09:15:12;2.77;;;1.10;;
19739;SDS011;10027;51.066;13.768;2023-04-12T09:17:41;1.70;;;0.90;;
19739;SDS011;10027;51.066;13.768;2023-04-12T09:22:38;1.87;;;0.90;;
19739;SDS011;10027;51.066;13.768;2023-04-12T09:25:09;2.13;;;0.63;;
19739;SDS011;10027;51.066;13.768;2023-04-12T09:27:52;3.57;;;1.03;;
19739;SDS011;10027;51.066;13.768;2023-04-12T09:30:20;2.07;;;0.90;;
19739;SDS011;10027;51.066;13.768;2023-04-12T09:32:47;1.67;;;0.70;;
19739;SDS011;10027;51.066;13.768;2023-04-12T09:35:15;1.80;;;0.80;;
19739;SDS011;10027;51.066;13.768;2023-04-12T09:37:42;2.33;;;0.87;;
19739;SDS011;10027;51.066;13.768;2023-04-12T09:40:09;2.23;;;0.77;;
19739;SDS011;10027;51.066;13.768;2023-04-12T09:42:57;2.53;;;1.00;;
19739;SDS011;10027;51.066;13.768;2023-04-12T09:45:24;2.47;;;0.97;;
19739;SDS011;10027;51.066;13.768;2023-04-12T09:47:53;1.90;;;0.73;;
19739;SDS011;10027;51.066;13.768;2023-04-12T09:52:48;1.07;;;0.70;;
19739;SDS011;10027;51.066;13.768;2023-04-12T09:55:15;2.07;;;0.97;;
19739;SDS011;10027;51.066;13.768;2023-04-12T09:57:43;1.77;;;1.23;;
19739;SDS011;10027;51.066;13.768;2023-04-12T10:00:11;3.87;;;1.00;;
19739;SDS011;10027;51.066;13.768;2023-04-12T10:02:49;1.43;;;1.10;;
19739;SDS011;10027;51.066;13.768;2023-04-12T10:05:18;3.23;;;1.10;;
19739;SDS011;10027;51.066;13.768;2023-04-12T10:07:46;1.60;;;0.90;;
19739;SDS011;10027;51.066;13.768;2023-04-12T10:10:14;2.57;;;1.20;;
19739;SDS011;10027;51.066;13.768;2023-04-12T10:12:43;2.43;;;1.20;;
19739;SDS011;10027;51.066;13.768;2023-04-12T10:15:12;2.67;;;1.40;;
19739;SDS011;10027;51.066;13.768;2023-04-12T10:17:42;2.30;;;1.20;;
19739;SDS011;10027;51.066;13.768;2023-04-12T10:20:13;4.57;;;1.40;;
19739;SDS011;10027;51.066;13.768;2023-04-12T10:22:42;3.10;;;1.50;;
19739;SDS011;10027;51.066;13.768;2023-04-12T10:25:11;3.90;;;1.37;;
19739;SDS011;10027;51.066;13.768;2023-04-12T10:27:39;2.07;;;1.20;;
19739;SDS011;10027;51.066;13.768;2023-04-12T10:35:30;2.93;;;2.00;;
19739;SDS011;10027;51.066;13.768;2023-04-12T10:38:15;3.57;;;1.70;;
19739;SDS011;10027;51.066;13.768;2023-04-12T10:43:28;2.87;;;1.50;;
19739;SDS011;10027;51.066;13.768;2023-04-12T10:45:55;1.83;;;1.40;;
19739;SDS011;10027;51.066;13.768;2023-04-12T10:48:30;3.13;;;1.43;;
19739;SDS011;10027;51.066;13.768;2023-04-12T10:51:11;2.90;;;1.77;;
19739;SDS011;10027;51.066;13.768;2023-04-12T10:53:41;3.67;;;1.70;;
19739;SDS011;10027;51.066;13.768;2023-04-12T10:58:58;4.30;;;1.93;;
19739;SDS011;10027;51.066;13.768;2023-04-12T11:01:26;5.33;;;1.70;;
19739;SDS011;10027;51.066;13.768;2023-04-12T11:04:16;3.20;;;1.90;;
19739;SDS011;10027;51.066;13.768;2023-04-12T11:12:10;3.87;;;1.97;;
19739;SDS011;10027;51.066;13.768;2023-04-12T11:14:42;3.43;;;2.00;;
19739;SDS011;10027;51.066;13.768;2023-04-12T11:19:44;3.73;;;1.97;;
19739;SDS011;10027;51.066;13.768;2023-04-12T11:22:12;3.90;;;2.20;;
19739;SDS011;10027;51.066;13.768;2023-04-12T11:24:41;3.87;;;2.27;;
19739;SDS011;10027;51.066;13.768;2023-04-12T11:27:09;5.60;;;2.03;;
19739;SDS011;10027;51.066;13.768;2023-04-12T11:29:37;3.30;;;2.30;;
19739;SDS011;10027;51.066;13.768;2023-04-12T11:32:04;3.63;;;2.20;;
19739;SDS011;10027;51.066;13.768;2023-04-12T11:34:33;4.33;;;2.17;;
19739;SDS011;10027;51.066;13.768;2023-04-12T11:37:01;3.07;;;2.37;;
19739;SDS011;10027;51.066;13.768;2023-04-12T11:39:34;6.63;;;2.50;;
19739;SDS011;10027;51.066;13.768;2023-04-12T11:42:01;4.17;;;2.40;;
19739;SDS011;10027;51.066;13.768;2023-04-12T11:44:31;3.33;;;2.20;;
19739;SDS011;10027;51.066;13.768;2023-04-12T11:47:19;4.90;;;2.00;;
19739;SDS011;10027;51.066;13.768;2023-04-12T11:49:47;3.97;;;2.20;;
19739;SDS011;10027;51.066;13.768;2023-04-12T11:52:16;2.60;;;2.07;;
19739;SDS011;10027;51.066;13.768;2023-04-12T11:54:44;4.00;;;2.60;;
19739;SDS011;10027;51.066;13.768;2023-04-12T11:57:12;3.20;;;2.27;;
19739;SDS011;10027;51.066;13.768;2023-04-12T11:59:41;3.87;;;2.30;;
19739;SDS011;10027;51.066;13.768;2023-04-12T12:02:09;2.33;;;2.10;;
19739;SDS011;10027;51.066;13.768;2023-04-12T12:04:48;3.13;;;2.30;;
19739;SDS011;10027;51.066;13.768;2023-04-12T12:07:17;3.13;;;1.97;;
19739;SDS011;10027;51.066;13.768;2023-04-12T12:09:45;5.70;;;2.77;;
19739;SDS011;10027;51.066;13.768;2023-04-12T12:12:13;3.03;;;2.37;;
19739;SDS011;10027;51.066;13.768;2023-04-12T12:14:42;6.10;;;2.40;;
19739;SDS011;10027;51.066;13.768;2023-04-12T12:17:13;5.47;;;2.40;;
19739;SDS011;10027;51.066;13.768;2023-04-12T12:19:41;3.87;;;2.50;;
19739;SDS011;10027;51.066;13.768;2023-04-12T12:22:21;3.47;;;2.10;;
19739;SDS011;10027;51.066;13.768;2023-04-12T12:27:18;3.03;;;2.10;;
19739;SDS011;10027;51.066;13.768;2023-04-12T12:29:48;4.17;;;1.80;;
19739;SDS011;10027;51.066;13.768;2023-04-12T12:32:16;3.20;;;2.00;;
19739;SDS011;10027;51.066;13.768;2023-04-12T12:34:51;2.40;;;1.80;;
19739;SDS011;10027;51.066;13.768;2023-04-12T12:37:20;2.63;;;2.00;;
19739;SDS011;10027;51.066;13.768;2023-04-12T12:42:49;4.30;;;2.00;;
19739;SDS011;10027;51.066;13.768;2023-04-12T12:45:18;2.30;;;1.80;;
19739;SDS011;10027;51.066;13.768;2023-04-12T12:50:20;2.97;;;1.70;;
19739;SDS011;10027;51.066;13.768;2023-04-12T12:52:50;3.70;;;1.60;;
19739;SDS011;10027;51.066;13.768;2023-04-12T12:55:18;2.73;;;1.83;;
19739;SDS011;10027;51.066;13.768;2023-04-12T12:57:47;2.33;;;1.53;;
19739;SDS011;10027;51.066;13.768;2023-04-12T13:00:31;4.03;;;1.63;;
19739;SDS011;10027;51.066;13.768;2023-04-12T13:02:58;2.77;;;1.33;;
19739;SDS011;10027;51.066;13.768;2023-04-12T13:05:27;3.37;;;1.30;;
19739;SDS011;10027;51.066;13.768;2023-04-12T13:07:54;3.50;;;1.20;;
19739;SDS011;10027;51.066;13.768;2023-04-12T13:10:21;3.97;;;1.30;;
19739;SDS011;10027;51.066;13.768;2023-04-12T13:12:49;1.50;;;0.90;;
19739;SDS011;10027;51.066;13.768;2023-04-12T13:15:16;2.50;;;1.10;;
19739;SDS011;10027;51.066;13.768;2023-04-12T13:17:52;1.50;;;1.00;;
19739;SDS011;10027;51.066;13.768;2023-04-12T13:20:20;3.07;;;1.20;;
19739;SDS011;10027;51.066;13.768;2023-04-12T13:22:47;2.63;;;1.13;;
19739;SDS011;10027;51.066;13.768;2023-04-12T13:25:15;2.47;;;1.13;;
19739;SDS011;10027;51.066;13.768;2023-04-12T13:27:42;3.43;;;1.10;;
19739;SDS011;10027;51.066;13.768;2023-04-12T13:30:09;3.50;;;1.30;;
19739;SDS011;10027;51.066;13.768;2023-04-12T13:32:36;2.20;;;0.90;;
19739;SDS011;10027;51.066;13.768;2023-04-12T13:35:03;3.63;;;1.10;;
19739;SDS011;10027;51.066;13.768;2023-04-12T13:37:32;4.07;;;1.20;;
19739;SDS011;10027;51.066;13.768;2023-04-12T13:39:59;1.70;;;1.10;;
19739;SDS011;10027;51.066;13.768;2023-04-12T13:42:26;1.97;;;1.00;;
19739;SDS011;10027;51.066;13.768;2023-04-12T13:44:53;3.60;;;1.17;;
19739;SDS011;10027;51.066;13.768;2023-04-12T13:47:22;1.50;;;1.00;;
19739;SDS011;10027;51.066;13.768;2023-04-12T13:49:49;1.40;;;0.77;;
19739;SDS011;10027;51.066;13.768;2023-04-12T13:52:16;1.93;;;0.80;;
19739;SDS011;10027;51.066;13.768;2023-04-12T13:54:43;2.53;;;0.80;;
19739;SDS011;10027;51.066;13.768;2023-04-12T13:57:11;2.27;;;1.10;;
19739;SDS011;10027;51.066;13.768;2023-04-12T13:59:38;1.63;;;0.90;;
19739;SDS011;10027;51.066;13.768;2023-04-12T14:02:06;1.80;;;0.73;;
19739;SDS011;10027;51.066;13.768;2023-04-12T14:04:33;1.47;;;0.70;;
19739;SDS011;10027;51.066;13.768;2023-04-12T14:07:00;2.03;;;0.93;;
19739;SDS011;10027;51.066;13.768;2023-04-12T14:09:29;3.53;;;1.17;;
19739;SDS011;10027;51.066;13.768;2023-04-12T14:11:57;2.93;;;0.97;;
19739;SDS011;10027;51.066;13.768;2023-04-12T14:14:25;1.57;;;0.80;;
19739;SDS011;10027;51.066;13.768;2023-04-12T14:16:53;1.57;;;0.97;;
19739;SDS011;10027;51.066;13.768;2023-04-12T14:19:22;2.43;;;0.70;;
19739;SDS011;10027;51.066;13.768;2023-04-12T14:21:50;2.60;;;1.00;;
19739;SDS011;10027;51.066;13.768;2023-04-12T14:24:18;5.43;;;1.23;;
19739;SDS011;10027;51.066;13.768;2023-04-12T14:26:45;2.13;;;1.00;;
19739;SDS011;10027;51.066;13.768;2023-04-12T14:29:13;3.20;;;0.90;;
19739;SDS011;10027;51.066;13.768;2023-04-12T14:31:40;2.67;;;0.90;;
19739;SDS011;10027;51.066;13.768;2023-04-12T14:34:08;3.47;;;1.00;;
19739;SDS011;10027;51.066;13.768;2023-04-12T14:36:36;2.50;;;1.10;;
19739;SDS011;10027;51.066;13.768;2023-04-12T14:39:03;2.43;;;1.03;;
19739;SDS011;10027;51.066;13.768;2023-04-12T14:41:35;1.97;;;0.80;;
19739;SDS011;10027;51.066;13.768;2023-04-12T14:44:02;2.17;;;1.10;;
19739;SDS011;10027;51.066;13.768;2023-04-12T14:46:30;1.87;;;1.20;;
19739;SDS011;10027;51.066;13.768;2023-04-12T14:48:57;1.27;;;1.07;;
19739;SDS011;10027;51.066;13.768;2023-04-12T14:51:27;4.07;;;1.43;;
19739;SDS011;10027;51.066;13.768;2023-04-12T14:53:54;3.47;;;1.40;;
19739;SDS011;10027;51.066;13.768;2023-04-12T14:56:23;2.07;;;1.27;;
19739;SDS011;10027;51.066;13.768;2023-04-12T14:58:56;2.57;;;1.33;;
19739;SDS011;10027;51.066;13.768;2023-04-12T15:01:23;2.97;;;1.40;;
19739;SDS011;10027;51.066;13.768;2023-04-12T15:03:51;3.13;;;1.40;;
19739;SDS011;10027;51.066;13.768;2023-04-12T15:06:22;3.83;;;1.40;;
19739;SDS011;10027;51.066;13.768;2023-04-12T15:08:52;1.80;;;1.30;;
19739;SDS011;10027;51.066;13.768;2023-04-12T15:11:20;1.70;;;1.23;;
19739;SDS011;10027;51.066;13.768;2023-04-12T15:13:52;2.50;;;1.70;;
19739;SDS011;10027;51.066;13.768;2023-04-12T15:16:20;1.73;;;1.60;;
19739;SDS011;10027;51.066;13.768;2023-04-12T15:18:47;2.60;;;1.50;;
19739;SDS011;10027;51.066;13.768;2023-04-12T15:21:16;1.40;;;1.30;;
19739;SDS011;10027;51.066;13.768;2023-04-12T15:23:43;1.90;;;1.40;;